createdAt,value
2019-05-09T00:00:37.594Z,94283.5
2019-05-09T00:01:40.065Z,94282.7
2019-05-09T00:03:47.764Z,94286.8
2019-05-09T00:04:50.239Z,94282.5
2019-05-09T00:06:57.825Z,94284.8
2019-05-09T00:08:00.027Z,94281.4
2019-05-09T00:09:04.676Z,94284.7
2019-05-09T00:10:07.172Z,94281.3
2019-05-09T00:11:08.805Z,94283.7
2019-05-09T00:12:10.989Z,94288.7
2019-05-09T00:13:14.980Z,94293.9
2019-05-09T00:14:17.449Z,94288.1
2019-05-09T00:15:19.643Z,94285.6
2019-05-09T00:17:27.317Z,94293.4
2019-05-09T00:18:29.515Z,94291.3
2019-05-09T00:19:33.802Z,94288.8
2019-05-09T00:20:36.272Z,94286.5
2019-05-09T00:21:38.736Z,94278.6
2019-05-09T00:22:43.079Z,94284.5
2019-05-09T00:23:47.366Z,94285.6
2019-05-09T00:24:49.585Z,94288
2019-05-09T00:25:53.764Z,94291.3
2019-05-09T00:26:56.127Z,94284.3
2019-05-09T00:27:58.612Z,94291.6
2019-05-09T00:29:01.082Z,94294.1
2019-05-09T00:30:05.798Z,94289
2019-05-09T00:31:07.988Z,94290.7
2019-05-09T00:32:10.156Z,94289.7
2019-05-09T00:34:18.061Z,94293
2019-05-09T00:35:23.193Z,94291
2019-05-09T00:36:27.260Z,94287.9
2019-05-09T00:37:29.186Z,94292.8
2019-05-09T00:39:37.314Z,94289
2019-05-09T00:41:45.081Z,94286.6
2019-05-09T00:42:46.716Z,94288.2
2019-05-09T00:43:49.185Z,94288.6
2019-05-09T00:44:53.754Z,94290.4
2019-05-09T00:45:56.218Z,94288.4
2019-05-09T00:51:34.823Z,94287.4
2019-05-09T00:52:37.049Z,94290.2
2019-05-09T00:53:39.251Z,94285.4
2019-05-09T00:55:47.447Z,94287.8
2019-05-09T00:56:49.653Z,94290.3
2019-05-09T00:57:54.415Z,94285
2019-05-09T00:58:56.342Z,94283.8
2019-05-09T00:59:58.561Z,94283.7
2019-05-09T01:01:00.487Z,94285.8
2019-05-09T01:03:07.434Z,94279.4
2019-05-09T01:04:09.933Z,94276.6
2019-05-09T01:05:14.699Z,94273.4
2019-05-09T01:06:17.213Z,94276.4
2019-05-09T01:07:19.700Z,94276.6
2019-05-09T01:08:21.629Z,94280.9
2019-05-09T01:09:25.890Z,94276.6
2019-05-09T01:10:27.799Z,94272.7
2019-05-09T01:11:30.259Z,94276.3
2019-05-09T01:13:38.213Z,94273.2
2019-05-09T01:14:40.411Z,94266.2
2019-05-09T01:15:47.351Z,94263.8
2019-05-09T01:16:49.520Z,94264.5
2019-05-09T01:18:57.469Z,94264.5
2019-05-09T01:19:59.675Z,94260.3
2019-05-09T01:21:04.380Z,94261.8
2019-05-09T01:22:06.563Z,94263.2
2019-05-09T01:23:08.766Z,94259.5
2019-05-09T01:24:11.247Z,94263.3
2019-05-09T01:25:15.839Z,94260
2019-05-09T01:26:18.045Z,94257.1
2019-05-09T01:27:20.256Z,94253.5
2019-05-09T01:28:24.465Z,94253.2
2019-05-09T01:29:26.931Z,94251.6
2019-05-09T01:30:29.115Z,94248.7
2019-05-09T01:31:33.771Z,94253.4
2019-05-09T01:32:36.258Z,94253.5
2019-05-09T01:33:38.458Z,94255.1
2019-05-09T01:34:40.649Z,94251.9
2019-05-09T01:35:44.580Z,94253.2
2019-05-09T01:36:46.769Z,94256.3
2019-05-09T01:37:49.245Z,94259.6
2019-05-09T01:38:51.181Z,94256.6
2019-05-09T01:39:55.910Z,94261.5
2019-05-09T01:40:58.367Z,94263.4
2019-05-09T01:42:00.590Z,94258.6
2019-05-09T01:43:06.076Z,94254.2
2019-05-09T01:44:08.275Z,94256.3
2019-05-09T01:45:10.217Z,94258.4
2019-05-09T01:47:18.169Z,94257.2
2019-05-09T01:48:20.103Z,94250.1
2019-05-09T01:49:24.750Z,94250.2
2019-05-09T01:50:27.240Z,94251.1
2019-05-09T01:51:29.725Z,94251.8
2019-05-09T01:53:37.402Z,94256.3
2019-05-09T01:54:39.865Z,94252.8
2019-05-09T01:56:47.508Z,94247.5
2019-05-09T01:57:49.727Z,94248.1
2019-05-09T01:59:57.894Z,94249.5
2019-05-09T02:01:00.369Z,94254.8
2019-05-09T02:03:07.830Z,94256.5
2019-05-09T02:04:10.291Z,94260
2019-05-09T02:05:14.909Z,94256.1
2019-05-09T02:06:17.122Z,94250.3
2019-05-09T02:07:19.601Z,94248.5
2019-05-09T02:09:27.297Z,94246.3
2019-05-09T02:10:29.787Z,94249.9
2019-05-09T02:12:36.952Z,94249.1
2019-05-09T02:13:39.670Z,94254.6
2019-05-09T02:15:47.821Z,94243.8
2019-05-09T02:16:50.004Z,94245.5
2019-05-09T02:18:57.491Z,94246.6
2019-05-09T02:19:59.650Z,94243.7
2019-05-09T02:22:07.574Z,94249.1
2019-05-09T02:23:10.031Z,94245.4
2019-05-09T02:25:18.190Z,94249.8
2019-05-09T02:26:20.661Z,94243.9
2019-05-09T02:27:24.754Z,94240.5
2019-05-09T02:28:27.216Z,94235.8
2019-05-09T02:29:29.425Z,94240.5
2019-05-09T02:30:31.596Z,94238.1
2019-05-09T02:31:38.750Z,94235
2019-05-09T02:32:41.007Z,94241.8
2019-05-09T02:34:48.175Z,94241.9
2019-05-09T02:38:01.855Z,94235.7
2019-05-09T02:39:03.786Z,94242.2
2019-05-09T02:41:11.964Z,94241.5
2019-05-09T02:42:19.130Z,94245.8
2019-05-09T02:43:22.975Z,94245
2019-05-09T02:44:25.165Z,94244.7
2019-05-09T02:45:32.113Z,94242.1
2019-05-09T02:46:34.355Z,94242.7
2019-05-09T02:48:41.819Z,94240.8
2019-05-09T02:49:44.290Z,94237.4
2019-05-09T02:51:51.764Z,94236.9
2019-05-09T02:52:54.243Z,94233.6
2019-05-09T02:55:02.498Z,94233
2019-05-09T02:56:04.726Z,94229
2019-05-09T02:58:11.927Z,94235.3
2019-05-09T02:59:14.149Z,94234.6
2019-05-09T03:01:22.138Z,94240.3
2019-05-09T03:02:24.065Z,94236.6
2019-05-09T03:04:32.616Z,94236.9
2019-05-09T03:05:38.013Z,94234.8
2019-05-09T03:06:41.545Z,94235.9
2019-05-09T03:07:44.259Z,94233
2019-05-09T03:09:52.211Z,94236.4
2019-05-09T03:10:54.420Z,94231.8
2019-05-09T03:13:01.678Z,94225.1
2019-05-09T03:14:03.856Z,94225.5
2019-05-09T03:16:12.338Z,94221
2019-05-09T03:17:14.863Z,94222.8
2019-05-09T03:19:22.066Z,94221.9
2019-05-09T03:20:24.548Z,94221.2
2019-05-09T03:21:31.665Z,94220.5
2019-05-09T03:22:34.140Z,94227.3
2019-05-09T03:24:42.012Z,94223.3
2019-05-09T03:25:44.193Z,94224.3
2019-05-09T03:27:52.162Z,94222.1
2019-05-09T03:28:54.374Z,94228.8
2019-05-09T03:31:02.325Z,94234
2019-05-09T03:32:04.551Z,94230.1
2019-05-09T03:33:12.169Z,94227
2019-05-09T03:34:14.381Z,94230.5
2019-05-09T03:35:18.766Z,94229.8
2019-05-09T03:36:20.971Z,94227.4
2019-05-09T03:37:23.174Z,94228.2
2019-05-09T03:38:25.365Z,94229.1
2019-05-09T03:39:32.304Z,94222.8
2019-05-09T03:40:34.779Z,94220.6
2019-05-09T03:41:36.708Z,94222.4
2019-05-09T03:43:49.300Z,94221.1
2019-05-09T03:44:51.925Z,94220.2
2019-05-09T03:45:55.053Z,94218.6
2019-05-09T03:46:59.671Z,94223.4
2019-05-09T03:48:02.150Z,94226.3
2019-05-09T03:49:04.632Z,94221.7
2019-05-09T03:50:11.576Z,94224.1
2019-05-09T03:51:14.041Z,94223.4
2019-05-09T03:52:18.758Z,94222.7
2019-05-09T03:53:21.242Z,94224.3
2019-05-09T03:54:23.716Z,94222.5
2019-05-09T03:56:31.891Z,94218.3
2019-05-09T03:57:34.355Z,94221.5
2019-05-09T03:58:35.974Z,94226.9
2019-05-09T03:59:42.639Z,94223.6
2019-05-09T04:00:44.817Z,94224.2
2019-05-09T04:02:52.283Z,94221
2019-05-09T04:03:54.756Z,94226.6
2019-05-09T04:04:59.252Z,94219.7
2019-05-09T04:08:12.200Z,94214.9
2019-05-09T04:09:14.627Z,94211.9
2019-05-09T04:10:19.076Z,94212.5
2019-05-09T04:11:21.278Z,94216.7
2019-05-09T04:12:23.505Z,94217.4
2019-05-09T04:13:28.117Z,94220.9
2019-05-09T04:14:32.145Z,94224.6
2019-05-09T04:15:34.327Z,94227.3
2019-05-09T04:17:41.994Z,94222.6
2019-05-09T04:18:44.504Z,94222.2
2019-05-09T04:20:52.325Z,94221.7
2019-05-09T04:21:57.292Z,94224.9
2019-05-09T04:23:00.970Z,94224.6
2019-05-09T04:24:03.455Z,94223.7
2019-05-09T04:25:07.817Z,94223.5
2019-05-09T04:26:10.482Z,94218.2
2019-05-09T04:27:12.677Z,94222.8
2019-05-09T04:28:15.174Z,94218.1
2019-05-09T04:29:20.186Z,94220.4
2019-05-09T04:30:22.664Z,94219.1
2019-05-09T04:31:25.140Z,94219.7
2019-05-09T04:32:31.804Z,94220.4
2019-05-09T04:33:34.270Z,94219.6
2019-05-09T04:35:41.956Z,94218.9
2019-05-09T04:36:44.429Z,94219.3
2019-05-09T04:38:51.350Z,94217.1
2019-05-09T04:41:00.816Z,94218.7
2019-05-09T04:45:19.225Z,94217.6
2019-05-09T04:48:32.001Z,94224
2019-05-09T04:50:39.372Z,94230.1
2019-05-09T04:51:41.582Z,94228.7
2019-05-09T04:52:44.586Z,94231.3
2019-05-09T04:53:48.982Z,94227.4
2019-05-09T04:54:51.166Z,94229.9
2019-05-09T04:55:53.649Z,94229.9
2019-05-09T04:56:58.496Z,94232.9
2019-05-09T04:58:01.761Z,94228.4
2019-05-09T04:59:04.290Z,94225.3
2019-05-09T05:01:11.704Z,94227
2019-05-09T05:02:14.178Z,94225.9
2019-05-09T05:04:22.288Z,94227.6
2019-05-09T05:05:24.838Z,94228.2
2019-05-09T05:06:29.866Z,94225.3
2019-05-09T05:07:32.091Z,94224.5
2019-05-09T05:08:34.570Z,94226.7
2019-05-09T05:09:40.967Z,94226.3
2019-05-09T05:10:42.889Z,94228.6
2019-05-09T05:12:50.352Z,94227.7
2019-05-09T05:13:52.549Z,94230.5
2019-05-09T05:14:55.016Z,94229.3
2019-05-09T05:16:01.955Z,94231.6
2019-05-09T05:18:10.072Z,94232
2019-05-09T05:19:12.425Z,94231.5
2019-05-09T05:20:14.593Z,94235.8
2019-05-09T05:22:22.702Z,94232
2019-05-09T05:24:31.697Z,94231.1
2019-05-09T05:25:33.933Z,94234
2019-05-09T05:27:42.262Z,94229.5
2019-05-09T05:28:44.490Z,94230.1
2019-05-09T05:29:49.103Z,94232.1
2019-05-09T05:30:51.582Z,94229.5
2019-05-09T05:31:53.748Z,94229.8
2019-05-09T05:34:01.643Z,94231.2
2019-05-09T05:35:03.855Z,94233.1
2019-05-09T05:37:11.554Z,94237.9
2019-05-09T05:38:13.464Z,94237.1
2019-05-09T05:39:18.793Z,94237.8
2019-05-09T05:40:21.005Z,94237.2
2019-05-09T05:41:23.480Z,94241.2
2019-05-09T05:45:42.831Z,94237
2019-05-09T05:47:50.342Z,94238.3
2019-05-09T05:48:52.812Z,94239.4
2019-05-09T05:49:57.551Z,94239.3
2019-05-09T05:51:01.473Z,94239.3
2019-05-09T05:52:03.673Z,94240.6
2019-05-09T05:54:12.120Z,94244.9
2019-05-09T05:55:14.595Z,94243.8
2019-05-09T05:56:19.238Z,94242.5
2019-05-09T05:57:22.334Z,94244.9
2019-05-09T05:58:24.803Z,94243
2019-05-09T06:00:32.250Z,94245.6
2019-05-09T06:01:34.758Z,94245.7
2019-05-09T06:03:42.396Z,94249.2
2019-05-09T06:04:44.910Z,94254.5
2019-05-09T06:06:52.403Z,94249.3
2019-05-09T06:07:54.872Z,94248.3
2019-05-09T06:09:01.315Z,94245
2019-05-09T06:10:03.526Z,94245.8
2019-05-09T06:12:11.482Z,94243.8
2019-05-09T06:13:13.426Z,94242.5
2019-05-09T06:15:22.038Z,94240.9
2019-05-09T06:16:24.580Z,94242.5
2019-05-09T06:18:32.559Z,94240.1
2019-05-09T06:19:34.766Z,94242.5
2019-05-09T06:20:41.461Z,94237.5
2019-05-09T06:22:53.126Z,94234.6
2019-05-09T06:23:55.066Z,94236.7
2019-05-09T06:24:59.791Z,94238.6
2019-05-09T06:26:02.414Z,94237.2
2019-05-09T06:28:10.088Z,94234.7
2019-05-09T06:29:12.576Z,94232.8
2019-05-09T06:30:17.370Z,94234
2019-05-09T06:31:21.254Z,94239.9
2019-05-09T06:32:23.743Z,94237.7
2019-05-09T06:34:32.199Z,94229.6
2019-05-09T06:35:34.675Z,94235
2019-05-09T06:36:41.066Z,94233.4
2019-05-09T06:37:43.290Z,94238.5
2019-05-09T06:38:45.444Z,94241.4
2019-05-09T06:39:50.277Z,94242.6
2019-05-09T06:40:52.738Z,94240.5
2019-05-09T06:41:57.241Z,94237.2
2019-05-09T06:43:01.555Z,94242.8
2019-05-09T06:45:09.322Z,94241
2019-05-09T06:46:11.792Z,94239.6
2019-05-09T06:47:14.270Z,94237.8
2019-05-09T06:50:28.818Z,94238.5
2019-05-09T06:51:31.291Z,94239.7
2019-05-09T06:52:33.768Z,94236.3
2019-05-09T06:53:37.766Z,94238.5
2019-05-09T06:54:43.365Z,94242.7
2019-05-09T06:56:51.523Z,94239.5
2019-05-09T06:57:53.994Z,94236.1
2019-05-09T07:00:02.160Z,94235.7
2019-05-09T07:01:04.828Z,94235.4
2019-05-09T07:02:11.781Z,94231.6
2019-05-09T07:03:14.282Z,94236
2019-05-09T07:04:18.159Z,94233.1
2019-05-09T07:05:21.125Z,94235.4
2019-05-09T07:06:23.602Z,94234.5
2019-05-09T07:07:27.869Z,94234.1
2019-05-09T07:09:35.482Z,94234.6
2019-05-09T07:10:42.429Z,94235.8
2019-05-09T07:11:44.627Z,94226.7
2019-05-09T07:12:49.128Z,94230.4
2019-05-09T07:13:51.055Z,94232.6
2019-05-09T07:14:53.286Z,94229.3
2019-05-09T07:15:55.490Z,94227.7
2019-05-09T07:17:02.439Z,94230.6
2019-05-09T07:18:04.905Z,94224.9
2019-05-09T07:19:09.559Z,94223.8
2019-05-09T07:20:11.749Z,94224
2019-05-09T07:21:14.223Z,94216.8
2019-05-09T07:23:22.794Z,94215.5
2019-05-09T07:24:25.277Z,94218.9
2019-05-09T07:25:30.700Z,94216.3
2019-05-09T07:26:32.889Z,94213.4
2019-05-09T07:27:34.572Z,94214
2019-05-09T07:28:39.488Z,94210.1
2019-05-09T07:29:41.704Z,94214.4
2019-05-09T07:30:44.183Z,94213.7
2019-05-09T07:32:52.161Z,94210.3
2019-05-09T07:33:54.643Z,94208.3
2019-05-09T07:34:58.881Z,94214
2019-05-09T07:36:01.343Z,94208.6
2019-05-09T07:37:03.800Z,94207.4
2019-05-09T07:38:08.183Z,94211.1
2019-05-09T07:39:12.459Z,94209.2
2019-05-09T07:40:14.645Z,94205.3
2019-05-09T07:41:21.575Z,94202.8
2019-05-09T07:42:24.051Z,94208.7
2019-05-09T07:46:42.200Z,94210.5
2019-05-09T07:47:44.671Z,94207.7
2019-05-09T07:49:52.123Z,94203.8
2019-05-09T07:50:54.623Z,94206.1
2019-05-09T07:53:02.307Z,94205.8
2019-05-09T07:55:10.604Z,94201.9
2019-05-09T07:56:13.086Z,94203.8
2019-05-09T07:58:21.572Z,94195.8
2019-05-09T07:59:23.874Z,94195.9
2019-05-09T08:01:31.823Z,94194.9
2019-05-09T08:02:34.065Z,94197.1
2019-05-09T08:03:37.770Z,94201
2019-05-09T08:04:42.456Z,94197.7
2019-05-09T08:05:44.926Z,94197.5
2019-05-09T08:06:50.373Z,94196.3
2019-05-09T08:07:52.715Z,94196.3
2019-05-09T08:08:57.800Z,94199
2019-05-09T08:10:01.490Z,94200
2019-05-09T08:11:04.003Z,94203.4
2019-05-09T08:13:13.651Z,94194.3
2019-05-09T08:15:21.917Z,94195.5
2019-05-09T08:16:23.834Z,94195.5
2019-05-09T08:17:28.327Z,94199.8
2019-05-09T08:18:32.630Z,94195.5
2019-05-09T08:19:37.812Z,94202
2019-05-09T08:20:42.333Z,94195.6
2019-05-09T08:21:44.803Z,94187.2
2019-05-09T08:23:52.273Z,94197.9
2019-05-09T08:24:54.762Z,94201.6
2019-05-09T08:27:08.961Z,94198
2019-05-09T08:28:11.501Z,94197.5
2019-05-09T08:29:14.037Z,94202.1
2019-05-09T08:31:21.492Z,94199.8
2019-05-09T08:32:23.704Z,94201.1
2019-05-09T08:33:28.474Z,94195.2
2019-05-09T08:34:32.751Z,94197
2019-05-09T08:35:34.687Z,94196.2
2019-05-09T08:36:39.405Z,94195.4
2019-05-09T08:37:41.877Z,94190.3
2019-05-09T08:38:44.348Z,94185
2019-05-09T08:40:52.483Z,94195.6
2019-05-09T08:41:54.697Z,94194.2
2019-05-09T08:44:02.343Z,94194.3
2019-05-09T08:45:04.805Z,94195.6
2019-05-09T08:46:09.309Z,94197.6
2019-05-09T08:47:11.805Z,94196.9
2019-05-09T08:48:14.522Z,94196.9
2019-05-09T08:49:19.251Z,94191.6
2019-05-09T08:50:21.483Z,94192.8
2019-05-09T08:51:23.700Z,94190.2
2019-05-09T08:52:28.498Z,94198.9
2019-05-09T08:53:32.368Z,94199.6
2019-05-09T08:54:34.565Z,94198.4
2019-05-09T08:56:42.245Z,94183.2
2019-05-09T08:57:44.173Z,94178.6
2019-05-09T08:59:52.470Z,94181
2019-05-09T09:00:54.977Z,94178.6
2019-05-09T09:04:11.907Z,94172.4
2019-05-09T09:05:15.475Z,94176.3
2019-05-09T09:06:22.581Z,94168
2019-05-09T09:07:24.253Z,94167.8
2019-05-09T09:08:28.975Z,94166.5
2019-05-09T09:09:31.440Z,94170.2
2019-05-09T09:10:33.892Z,94162.9
2019-05-09T09:12:42.649Z,94166.3
2019-05-09T09:13:44.895Z,94158.2
2019-05-09T09:14:49.401Z,94161.8
2019-05-09T09:16:59.093Z,94160.8
2019-05-09T09:18:01.276Z,94157.6
2019-05-09T09:19:03.442Z,94156.5
2019-05-09T09:21:11.335Z,94157.2
2019-05-09T09:22:13.798Z,94159.9
2019-05-09T09:24:21.731Z,94164.7
2019-05-09T09:25:24.162Z,94162.6
2019-05-09T09:27:31.619Z,94159.8
2019-05-09T09:28:34.056Z,94156.6
2019-05-09T09:30:41.365Z,94155.2
2019-05-09T09:31:43.795Z,94151.8
2019-05-09T09:33:51.437Z,94154.7
2019-05-09T09:34:53.862Z,94148.5
2019-05-09T09:38:09.017Z,94157.6
2019-05-09T09:39:13.176Z,94151.1
2019-05-09T09:40:17.454Z,94146.8
2019-05-09T09:41:21.225Z,94147.5
2019-05-09T09:42:23.090Z,94149
2019-05-09T09:43:27.729Z,94145.4
2019-05-09T09:44:31.945Z,94142.2
2019-05-09T09:45:33.847Z,94143.1
2019-05-09T09:46:38.143Z,94141.4
2019-05-09T09:47:41.489Z,94138.1
2019-05-09T09:48:43.833Z,94141.5
2019-05-09T09:50:53.335Z,94143.1
2019-05-09T09:53:01.733Z,94141.9
2019-05-09T09:54:04.165Z,94142.9
2019-05-09T09:56:12.278Z,94131.4
2019-05-09T09:57:14.731Z,94129
2019-05-09T09:59:22.177Z,94132.4
2019-05-09T10:00:24.313Z,94134.5
2019-05-09T10:02:32.133Z,94136.8
2019-05-09T10:03:34.563Z,94138.6
2019-05-09T10:04:38.744Z,94132.8
2019-05-09T10:05:41.220Z,94133.6
2019-05-09T10:06:43.657Z,94134.9
2019-05-09T10:08:51.547Z,94136.6
2019-05-09T10:09:53.695Z,94131
2019-05-09T10:12:02.458Z,94132.6
2019-05-09T10:13:10.319Z,94124.3
2019-05-09T10:14:12.286Z,94125
2019-05-09T10:15:14.734Z,94128.4
2019-05-09T10:17:23.106Z,94128.5
2019-05-09T10:18:27.458Z,94126.6
2019-05-09T10:19:31.691Z,94127.1
2019-05-09T10:20:34.125Z,94132.3
2019-05-09T10:23:49.227Z,94123.5
2019-05-09T10:24:51.677Z,94124.6
2019-05-09T10:25:54.102Z,94125.6
2019-05-09T10:26:56.804Z,94126.6
2019-05-09T10:27:58.961Z,94128.3
2019-05-09T10:29:01.398Z,94126.9
2019-05-09T10:30:03.839Z,94128.9
2019-05-09T10:31:06.257Z,94130
2019-05-09T10:32:10.512Z,94132.9
2019-05-09T10:33:12.967Z,94134.2
2019-05-09T10:34:17.616Z,94135.8
2019-05-09T10:35:21.817Z,94137.4
2019-05-09T10:36:24.255Z,94135.2
2019-05-09T10:37:26.434Z,94141
2019-05-09T10:38:29.577Z,94135.1
2019-05-09T10:39:32.008Z,94139.5
2019-05-09T10:40:34.180Z,94142.1
2019-05-09T10:41:38.555Z,94140.9
2019-05-09T10:42:41.583Z,94141.4
2019-05-09T10:43:43.742Z,94149.5
2019-05-09T10:44:45.931Z,94153.5
2019-05-09T10:45:49.894Z,94157.5
2019-05-09T10:47:58.864Z,94156.8
2019-05-09T10:49:01.293Z,94163.1
2019-05-09T10:50:03.502Z,94160.8
2019-05-09T10:54:22.060Z,94177.7
2019-05-09T10:55:23.934Z,94176.3
2019-05-09T10:59:51.569Z,94182.5
2019-05-09T11:00:54.217Z,94180.5
2019-05-09T11:03:01.687Z,94194
2019-05-09T11:04:03.825Z,94201.6
2019-05-09T11:06:11.726Z,94213.9
2019-05-09T11:07:14.173Z,94226.7
2019-05-09T11:09:21.821Z,94233.6
2019-05-09T11:11:30.354Z,94226.6
2019-05-09T11:12:32.323Z,94231.6
2019-05-09T11:13:34.501Z,94236.1
2019-05-09T11:14:39.696Z,94233.9
2019-05-09T11:15:42.306Z,94240.1
2019-05-09T11:17:49.781Z,94245
2019-05-09T11:18:52.228Z,94242.8
2019-05-09T11:19:54.668Z,94248.5
2019-05-09T11:22:02.088Z,94253.5
2019-05-09T11:23:04.633Z,94256.9
2019-05-09T11:24:11.570Z,94265.5
2019-05-09T11:25:14.028Z,94269
2019-05-09T11:27:21.654Z,94265.7
2019-05-09T11:28:24.092Z,94284.2
2019-05-09T11:30:31.708Z,94274.7
2019-05-09T11:31:34.122Z,94259.2
2019-05-09T11:33:42.501Z,94245.4
2019-05-09T11:34:44.663Z,94249.5
2019-05-09T11:36:52.622Z,94238.5
2019-05-09T11:37:55.260Z,94232.7
2019-05-09T11:40:02.743Z,94225.1
2019-05-09T11:41:04.686Z,94218.7
2019-05-09T11:42:07.256Z,94218.1
2019-05-09T11:43:09.694Z,94215.9
2019-05-09T11:44:11.579Z,94214.9
2019-05-09T11:45:14.038Z,94215.6
2019-05-09T11:49:32.443Z,94208.4
2019-05-09T11:50:34.891Z,94206.8
2019-05-09T11:51:36.815Z,94212.8
2019-05-09T11:52:39.924Z,94210.3
2019-05-09T11:53:42.102Z,94198.1
2019-05-09T11:54:47.959Z,94193
2019-05-09T11:55:52.152Z,94194.5
2019-05-09T11:56:54.396Z,94195.9
2019-05-09T11:59:02.286Z,94194.2
2019-05-09T12:00:04.475Z,94200.4
2019-05-09T12:02:12.212Z,94192.5
2019-05-09T12:03:14.633Z,94191.1
2019-05-09T12:05:22.527Z,94183
2019-05-09T12:06:24.967Z,94178.8
2019-05-09T12:08:32.369Z,94171.9
2019-05-09T12:09:34.495Z,94178.2
2019-05-09T12:12:49.229Z,94178.9
2019-05-09T12:13:51.376Z,94169.6
2019-05-09T12:14:53.834Z,94171.8
2019-05-09T12:17:01.931Z,94171.3
2019-05-09T12:19:09.101Z,94178
2019-05-09T12:22:22.391Z,94173.7
2019-05-09T12:23:24.834Z,94169.6
2019-05-09T12:25:33.446Z,94169.4
2019-05-09T12:26:38.653Z,94166.9
2019-05-09T12:27:41.835Z,94170.9
2019-05-09T12:28:44.187Z,94172.7
2019-05-09T12:30:52.078Z,94165.3
2019-05-09T12:31:54.515Z,94163.9
2019-05-09T12:34:02.898Z,94150.8
2019-05-09T12:35:05.386Z,94155.6
2019-05-09T12:36:12.297Z,94153.1
2019-05-09T12:37:14.627Z,94151.2
2019-05-09T12:39:22.234Z,94148.4
2019-05-09T12:40:27.139Z,94145.5
2019-05-09T12:42:34.787Z,94151.3
2019-05-09T12:44:42.843Z,94158.3
2019-05-09T12:45:47.806Z,94152.5
2019-05-09T12:46:52.475Z,94148.3
2019-05-09T12:49:01.826Z,94151.9
2019-05-09T12:50:04.114Z,94148.8
2019-05-09T12:52:12.728Z,94146.5
2019-05-09T12:53:15.142Z,94141.9
2019-05-09T12:55:22.550Z,94143.9
2019-05-09T12:56:24.994Z,94139
2019-05-09T12:57:31.969Z,94141.3
2019-05-09T12:58:34.332Z,94149.9
2019-05-09T13:00:42.944Z,94142.6
2019-05-09T13:01:45.106Z,94134.4
2019-05-09T13:02:51.762Z,94163.7
2019-05-09T13:03:54.194Z,94156.1
2019-05-09T13:04:57.821Z,94142.4
2019-05-09T13:06:00.578Z,94150.8
2019-05-09T13:07:03.075Z,94141.9
2019-05-09T13:08:04.972Z,94145.1
2019-05-09T13:09:10.488Z,94139.7
2019-05-09T13:10:13.248Z,94140.6
2019-05-09T13:11:15.684Z,94138.9
2019-05-09T13:12:22.533Z,94140.1
2019-05-09T13:13:27.996Z,94146
2019-05-09T13:14:31.776Z,94143.6
2019-05-09T13:15:34.045Z,94139.8
2019-05-09T13:17:41.865Z,94142.2
2019-05-09T13:18:44.344Z,94139.1
2019-05-09T13:20:52.379Z,94133.6
2019-05-09T13:21:55.438Z,94132.7
2019-05-09T13:23:01.846Z,94143.4
2019-05-09T13:24:04.067Z,94125.8
2019-05-09T13:25:06.246Z,94139.7
2019-05-09T13:26:09.789Z,94120.9
2019-05-09T13:27:13.034Z,94119.1
2019-05-09T13:28:17.474Z,94124.7
2019-05-09T13:29:22.224Z,94115.4
2019-05-09T13:30:25.120Z,94115.2
2019-05-09T13:32:39.668Z,94121.1
2019-05-09T13:33:43.276Z,94121.6
2019-05-09T13:34:48.412Z,94110.9
2019-05-09T13:35:52.264Z,94118.5
2019-05-09T13:36:54.432Z,94123.9
2019-05-09T13:41:12.407Z,94112
2019-05-09T13:42:14.773Z,94120
2019-05-09T13:44:23.092Z,94116.8
2019-05-09T13:45:54.825Z,94119.5
2019-05-09T13:48:03.567Z,94110.5
2019-05-09T13:50:15.650Z,94112.3
2019-05-09T13:51:22.037Z,94118.4
2019-05-09T13:52:24.557Z,94109.2
2019-05-09T13:53:32.040Z,94117
2019-05-09T13:54:35.273Z,94112.3
2019-05-09T13:55:43.297Z,94106
2019-05-09T13:57:51.716Z,94107.4
2019-05-09T13:58:54.509Z,94111.9
2019-05-09T14:01:04.414Z,94106.7
2019-05-09T14:02:12.061Z,94104
2019-05-09T14:03:14.957Z,94108
2019-05-09T14:04:21.798Z,94108.2
2019-05-09T14:05:24.997Z,94115.7
2019-05-09T14:06:32.051Z,94110.8
2019-05-09T14:07:34.210Z,94117.1
2019-05-09T14:09:42.700Z,94117.5
2019-05-09T14:10:48.133Z,94127.6
2019-05-09T14:11:52.184Z,94133.3
2019-05-09T14:14:00.186Z,94124.4
2019-05-09T14:15:03.747Z,94126.9
2019-05-09T14:20:28.482Z,94131
2019-05-09T14:21:31.470Z,94129.2
2019-05-09T14:22:33.933Z,94126.3
2019-05-09T14:24:41.353Z,94132.9
2019-05-09T14:26:49.340Z,94134.3
2019-05-09T14:27:53.970Z,94132.3
2019-05-09T14:30:01.687Z,94124
2019-05-09T14:31:04.150Z,94129.9
2019-05-09T14:32:07.233Z,94136
2019-05-09T14:33:09.827Z,94135.4
2019-05-09T14:34:11.723Z,94133.3
2019-05-09T14:35:13.884Z,94129.3
2019-05-09T14:36:16.040Z,94132.6
2019-05-09T14:37:19.533Z,94145.3
2019-05-09T14:38:21.976Z,94140.4
2019-05-09T14:39:24.401Z,94154.7
2019-05-09T14:40:29.001Z,94161.3
2019-05-09T14:41:31.626Z,94163.2
2019-05-09T14:42:34.522Z,94152.8
2019-05-09T14:44:43.155Z,94158.6
2019-05-09T14:45:45.576Z,94161.3
2019-05-09T14:46:52.210Z,94160.5
2019-05-09T14:47:54.647Z,94172.4
2019-05-09T14:50:02.272Z,94168.5
2019-05-09T14:51:04.702Z,94165.6
2019-05-09T14:52:11.607Z,94166.5
2019-05-09T14:53:14.254Z,94172.1
2019-05-09T14:54:16.690Z,94172
2019-05-09T14:55:19.717Z,94169
2019-05-09T14:56:22.123Z,94170.9
2019-05-09T14:57:24.765Z,94175.1
2019-05-09T14:59:32.664Z,94168.1
2019-05-09T15:00:34.830Z,94177.5
2019-05-09T15:02:41.972Z,94176.1
2019-05-09T15:03:44.129Z,94171.5
2019-05-09T15:05:52.514Z,94172.4
2019-05-09T15:06:54.408Z,94175.6
2019-05-09T15:08:02.167Z,94176.3
2019-05-09T15:09:08.050Z,94172.7
2019-05-09T15:10:10.747Z,94172.8
2019-05-09T15:11:13.180Z,94173.9
2019-05-09T15:12:18.447Z,94174.5
2019-05-09T15:13:22.281Z,94175.3
2019-05-09T15:14:24.734Z,94177.3
2019-05-09T15:16:32.358Z,94166.5
2019-05-09T15:17:34.526Z,94166.5
2019-05-09T15:20:49.400Z,94169.3
2019-05-09T15:21:51.538Z,94168.9
2019-05-09T15:22:53.966Z,94174.6
2019-05-09T15:23:58.327Z,94168
2019-05-09T15:25:02.584Z,94163.6
2019-05-09T15:26:04.443Z,94166.8
2019-05-09T15:27:06.606Z,94157.6
2019-05-09T15:28:09.818Z,94159.8
2019-05-09T15:29:12.866Z,94161.5
2019-05-09T15:31:22.451Z,94165.4
2019-05-09T15:33:31.132Z,94158
2019-05-09T15:34:33.743Z,94164.3
2019-05-09T15:35:36.177Z,94165.2
2019-05-09T15:36:42.814Z,94164.4
2019-05-09T15:38:52.703Z,94163.4
2019-05-09T15:39:56.982Z,94163.7
2019-05-09T15:41:00.119Z,94171.2
2019-05-09T15:42:03.808Z,94167.2
2019-05-09T15:44:12.325Z,94169.1
2019-05-09T15:45:14.773Z,94164.9
2019-05-09T15:46:19.686Z,94167.2
2019-05-09T15:47:22.021Z,94163.8
2019-05-09T15:48:24.477Z,94165
2019-05-09T15:49:31.390Z,94165.4
2019-05-09T15:50:33.813Z,94158.9
2019-05-09T15:51:38.579Z,94160.6
2019-05-09T15:52:42.257Z,94159.2
2019-05-09T15:53:44.689Z,94161.3
2019-05-09T15:54:48.147Z,94162.4
2019-05-09T15:55:50.940Z,94162.8
2019-05-09T15:56:53.967Z,94162.6
2019-05-09T15:59:01.941Z,94157.7
2019-05-09T16:00:04.813Z,94164.5
2019-05-09T16:01:11.717Z,94162.1
2019-05-09T16:02:18.644Z,94153.8
2019-05-09T16:03:21.907Z,94157.1
2019-05-09T16:04:24.514Z,94159.2
2019-05-09T16:05:26.646Z,94164
2019-05-09T16:07:34.057Z,94158.5
2019-05-09T16:09:41.789Z,94165.5
2019-05-09T16:10:44.316Z,94168
2019-05-09T16:12:52.407Z,94163.4
2019-05-09T16:13:55.251Z,94162.3
2019-05-09T16:14:57.674Z,94161.4
2019-05-09T16:16:00.714Z,94170.3
2019-05-09T16:17:02.882Z,94174.6
2019-05-09T16:18:08.310Z,94179.6
2019-05-09T16:19:12.254Z,94178.3
2019-05-09T16:20:17.788Z,94169.4
2019-05-09T16:21:21.642Z,94171.7
2019-05-09T16:22:24.085Z,94177.9
2019-05-09T16:24:32.196Z,94178
2019-05-09T16:25:34.623Z,94179.2
2019-05-09T16:27:42.636Z,94178.1
2019-05-09T16:28:44.987Z,94178.3
2019-05-09T16:29:52.462Z,94184.7
2019-05-09T16:30:55.748Z,94185.2
2019-05-09T16:32:00.732Z,94184.4
2019-05-09T16:33:03.184Z,94180.8
2019-05-09T16:34:05.396Z,94189.9